createdAt,value
2019-03-28T00:01:15.668Z,64.47
2019-03-28T00:03:44.436Z,64.54
2019-03-28T00:06:13.164Z,64.76
2019-03-28T00:08:41.896Z,65.42
2019-03-28T00:11:10.656Z,66.04
2019-03-28T00:13:39.415Z,66.20
2019-03-28T00:16:08.157Z,66.65
2019-03-28T00:18:36.887Z,67.45
2019-03-28T00:21:05.621Z,67.66
2019-03-28T00:23:38.957Z,68.54
2019-03-28T00:26:07.686Z,69.48
2019-03-28T00:28:36.976Z,69.86
2019-03-28T00:31:05.908Z,70.02
2019-03-28T00:33:34.653Z,70.13
2019-03-28T00:36:03.411Z,70.78
2019-03-28T00:38:32.147Z,70.66
2019-03-28T00:41:00.916Z,70.89
2019-03-28T00:43:29.663Z,70.91
2019-03-28T00:45:59.381Z,70.88
2019-03-28T00:48:28.159Z,71.00
2019-03-28T00:50:56.896Z,71.41
2019-03-28T00:53:25.661Z,71.18
2019-03-28T00:55:54.431Z,71.09
2019-03-28T00:58:23.136Z,71.04
2019-03-28T01:00:51.927Z,71.05
2019-03-28T01:03:20.667Z,70.76
2019-03-28T01:05:49.431Z,70.78
2019-03-28T01:08:18.167Z,70.75
2019-03-28T01:10:47.258Z,70.81
2019-03-28T01:13:16.161Z,70.96
2019-03-28T01:15:44.907Z,70.31
2019-03-28T01:18:13.666Z,70.71
2019-03-28T01:20:42.401Z,70.80
2019-03-28T01:23:11.181Z,70.67
2019-03-28T01:25:39.934Z,70.39
2019-03-28T01:28:08.693Z,69.95
2019-03-28T01:30:37.513Z,69.76
2019-03-28T01:33:06.253Z,69.69
2019-03-28T01:35:35.036Z,69.61
2019-03-28T01:38:04.072Z,70.04
2019-03-28T01:40:32.842Z,70.24
2019-03-28T01:43:01.602Z,70.32
2019-03-28T01:45:30.338Z,70.59
2019-03-28T01:47:59.125Z,70.21
2019-03-28T01:50:27.866Z,70.00
2019-03-28T01:52:56.605Z,70.33
2019-03-28T01:55:25.374Z,70.70
2019-03-28T01:57:54.163Z,70.32
2019-03-28T02:00:22.927Z,70.10
2019-03-28T02:02:51.648Z,70.63
2019-03-28T02:05:20.391Z,70.67
2019-03-28T02:07:49.152Z,70.92
2019-03-28T02:10:17.893Z,71.01
2019-03-28T02:12:46.681Z,70.78
2019-03-28T02:15:15.426Z,70.88
2019-03-28T02:17:44.179Z,70.42
2019-03-28T02:20:13.156Z,70.92
2019-03-28T02:22:41.901Z,71.29
2019-03-28T02:25:10.681Z,71.42
2019-03-28T02:27:39.426Z,71.37
2019-03-28T02:30:08.681Z,71.56
2019-03-28T02:32:37.453Z,71.96
2019-03-28T02:35:09.953Z,71.91
2019-03-28T02:37:38.718Z,71.74
2019-03-28T02:40:08.000Z,71.83
2019-03-28T02:42:36.749Z,71.80
2019-03-28T02:45:07.726Z,71.78
2019-03-28T02:47:36.476Z,72.04
2019-03-28T02:50:06.983Z,72.07
2019-03-28T02:52:38.111Z,71.98
2019-03-28T02:55:07.918Z,71.93
2019-03-28T02:57:41.752Z,71.91
2019-03-28T03:00:08.449Z,72.11
2019-03-28T03:02:38.212Z,72.64
2019-03-28T03:05:08.842Z,72.36
2019-03-28T03:07:39.221Z,72.26
2019-03-28T03:10:08.464Z,72.20
2019-03-28T03:12:39.247Z,72.49
2019-03-28T03:15:08.842Z,72.05
2019-03-28T03:17:37.577Z,72.15
2019-03-28T03:20:08.669Z,72.41
2019-03-28T03:22:38.530Z,72.30
2019-03-28T03:25:07.979Z,72.32
2019-03-28T03:27:36.752Z,72.42
2019-03-28T03:30:08.470Z,72.35
2019-03-28T03:32:37.287Z,72.53
2019-03-28T03:35:06.868Z,72.52
2019-03-28T03:37:35.668Z,72.59
2019-03-28T03:40:08.868Z,72.47
2019-03-28T03:42:37.616Z,72.62
2019-03-28T03:45:09.046Z,72.50
2019-03-28T03:47:38.308Z,72.72
2019-03-28T03:50:08.467Z,73.38
2019-03-28T03:52:37.227Z,73.33
2019-03-28T03:55:07.187Z,73.25
2019-03-28T03:57:35.946Z,73.21
2019-03-28T04:00:09.046Z,73.17
2019-03-28T04:02:37.969Z,73.52
2019-03-28T04:05:07.741Z,73.47
2019-03-28T04:07:36.470Z,73.53
2019-03-28T04:10:07.222Z,73.18
2019-03-28T04:12:36.012Z,73.49
2019-03-28T04:15:07.148Z,73.83
2019-03-28T04:17:35.892Z,73.50
2019-03-28T04:20:07.187Z,73.40
2019-03-28T04:22:36.984Z,73.37
2019-03-28T04:25:07.990Z,73.14
2019-03-28T04:27:36.766Z,72.77
2019-03-28T04:30:07.869Z,72.60
2019-03-28T04:32:36.631Z,72.80
2019-03-28T04:35:08.243Z,72.88
2019-03-28T04:37:36.994Z,72.99
2019-03-28T04:40:08.503Z,73.14
2019-03-28T04:42:39.247Z,73.22
2019-03-28T04:45:09.148Z,73.30
2019-03-28T04:47:38.206Z,73.52
2019-03-28T04:50:07.647Z,73.50
2019-03-28T04:52:36.486Z,73.21
2019-03-28T04:55:06.567Z,73.05
2019-03-28T04:57:35.307Z,73.48
2019-03-28T05:00:06.350Z,73.71
2019-03-28T05:02:36.527Z,73.74
2019-03-28T05:05:06.807Z,73.85
2019-03-28T05:07:35.568Z,73.95
2019-03-28T05:10:06.468Z,74.15
2019-03-28T05:12:35.188Z,73.97
2019-03-28T05:15:06.087Z,74.21
2019-03-28T05:17:35.067Z,74.35
2019-03-28T05:20:04.826Z,74.22
2019-03-28T05:22:33.628Z,74.12
2019-03-28T05:25:02.411Z,74.05
2019-03-28T05:27:31.127Z,74.06
2019-03-28T05:29:59.949Z,74.09
2019-03-28T05:32:28.706Z,74.22
2019-03-28T05:34:57.486Z,74.15
2019-03-28T05:37:26.249Z,73.94
2019-03-28T05:39:55.006Z,74.19
2019-03-28T05:42:23.808Z,73.86
2019-03-28T05:44:52.567Z,74.13
2019-03-28T05:47:22.179Z,73.87
2019-03-28T05:49:51.260Z,73.94
2019-03-28T05:52:20.006Z,74.00
2019-03-28T05:54:48.775Z,74.04
2019-03-28T05:57:17.566Z,73.89
2019-03-28T05:59:46.331Z,74.04
2019-03-28T06:02:15.147Z,73.80
2019-03-28T06:04:43.966Z,73.43
2019-03-28T06:07:12.734Z,73.50
2019-03-28T06:09:41.487Z,72.93
2019-03-28T06:12:10.289Z,73.60
2019-03-28T06:14:39.048Z,73.52
2019-03-28T06:17:07.806Z,73.28
2019-03-28T06:19:36.606Z,73.46
2019-03-28T06:22:05.389Z,73.39
2019-03-28T06:24:34.203Z,73.46
2019-03-28T06:27:03.007Z,72.28
2019-03-28T06:29:31.761Z,72.61
2019-03-28T06:32:00.529Z,72.31
2019-03-28T06:34:29.365Z,72.97
2019-03-28T06:36:58.127Z,72.84
2019-03-28T06:39:26.887Z,73.12
2019-03-28T06:41:55.730Z,73.36
2019-03-28T06:44:25.840Z,73.30
2019-03-28T06:46:55.261Z,73.42
2019-03-28T06:49:24.186Z,72.98
2019-03-28T06:51:52.966Z,73.48
2019-03-28T06:54:24.389Z,73.69
2019-03-28T06:56:53.386Z,73.63
2019-03-28T06:59:22.127Z,74.10
2019-03-28T07:01:51.965Z,73.74
2019-03-28T07:04:21.311Z,73.79
2019-03-28T07:06:50.066Z,73.56
2019-03-28T07:09:18.873Z,73.50
2019-03-28T07:11:47.670Z,73.67
2019-03-28T07:14:16.446Z,73.61
2019-03-28T07:16:47.496Z,73.20
2019-03-28T07:19:16.266Z,72.80
2019-03-28T07:21:45.027Z,72.57
2019-03-28T07:24:13.829Z,73.41
2019-03-28T07:26:42.571Z,73.75
2019-03-28T07:29:11.346Z,74.11
2019-03-28T07:31:41.529Z,74.38
2019-03-28T07:34:13.377Z,74.24
2019-03-28T07:36:40.830Z,74.08
2019-03-28T07:39:09.606Z,74.29
2019-03-28T07:41:38.471Z,74.53
2019-03-28T07:44:07.227Z,74.72
2019-03-28T07:46:36.046Z,74.78
2019-03-28T07:49:04.898Z,74.69
2019-03-28T07:51:33.646Z,74.47
2019-03-28T07:54:02.446Z,74.58
2019-03-28T07:56:31.224Z,74.47
2019-03-28T07:59:00.026Z,74.21
2019-03-28T08:01:28.787Z,73.57
2019-03-28T08:03:57.546Z,73.71
2019-03-28T08:06:26.353Z,73.65
2019-03-28T08:08:55.088Z,73.42
2019-03-28T08:11:24.025Z,72.63
2019-03-28T08:13:52.907Z,73.31
2019-03-28T08:16:21.683Z,72.64
2019-03-28T08:18:50.446Z,71.46
2019-03-28T08:21:19.210Z,72.14
2019-03-28T08:23:48.006Z,72.05
2019-03-28T08:26:16.746Z,73.63
2019-03-28T08:28:45.486Z,73.30
2019-03-28T08:31:14.934Z,71.44
2019-03-28T08:33:44.686Z,72.48
2019-03-28T08:36:15.307Z,71.19
2019-03-28T08:38:45.567Z,70.50
2019-03-28T08:41:14.306Z,70.15
2019-03-28T08:43:43.106Z,70.41
2019-03-28T08:46:11.866Z,69.43
2019-03-28T08:48:40.686Z,70.57
2019-03-28T08:51:09.445Z,71.84
2019-03-28T08:53:38.208Z,71.85
2019-03-28T08:56:07.006Z,71.58
2019-03-28T08:58:38.132Z,70.79
2019-03-28T09:01:06.867Z,71.38
2019-03-28T09:03:35.646Z,72.30
2019-03-28T09:06:04.432Z,72.27
2019-03-28T09:08:33.247Z,72.59
2019-03-28T09:11:02.007Z,72.67
2019-03-28T09:13:30.808Z,71.65
2019-03-28T09:15:59.568Z,72.15
2019-03-28T09:18:29.228Z,72.95
2019-03-28T09:20:58.031Z,73.66
2019-03-28T09:23:26.786Z,72.79
2019-03-28T09:25:55.606Z,72.78
2019-03-28T09:28:26.706Z,72.44
2019-03-28T09:30:55.610Z,71.81
2019-03-28T09:33:24.886Z,72.48
2019-03-28T09:35:53.646Z,72.81
2019-03-28T09:38:22.426Z,73.49
2019-03-28T09:40:51.207Z,73.66
2019-03-28T09:43:20.007Z,72.95
2019-03-28T09:45:50.206Z,71.86
2019-03-28T09:48:18.967Z,71.48
2019-03-28T09:50:47.746Z,71.40
2019-03-28T09:53:16.513Z,71.77
2019-03-28T09:55:45.316Z,71.31
2019-03-28T09:58:14.087Z,70.51
2019-03-28T10:00:42.829Z,70.62
2019-03-28T10:03:11.589Z,70.06
2019-03-28T10:05:40.465Z,69.73
2019-03-28T10:08:09.247Z,68.49
2019-03-28T10:10:37.988Z,67.60
2019-03-28T10:13:06.747Z,66.69
2019-03-28T10:15:37.131Z,66.56
2019-03-28T10:18:05.988Z,67.59
2019-03-28T10:20:34.809Z,67.16
2019-03-28T10:23:03.567Z,64.83
2019-03-28T10:25:32.307Z,65.58
2019-03-28T10:28:01.086Z,62.19
2019-03-28T10:30:35.711Z,61.95
2019-03-28T10:33:04.548Z,61.88
2019-03-28T10:35:33.306Z,59.74
2019-03-28T10:38:02.046Z,60.04
2019-03-28T10:40:30.827Z,58.21
2019-03-28T10:42:59.566Z,59.96
2019-03-28T10:45:28.366Z,57.81
2019-03-28T10:47:57.138Z,57.32
2019-03-28T10:50:39.922Z,57.44
2019-03-28T10:52:56.427Z,59.40
2019-03-28T10:55:25.226Z,59.03
2019-03-28T10:57:54.035Z,59.07
2019-03-28T11:00:24.613Z,59.12
2019-03-28T11:02:53.989Z,59.02
2019-03-28T11:05:22.848Z,59.81
2019-03-28T11:07:51.643Z,60.46
2019-03-28T11:10:20.426Z,61.53
2019-03-28T11:12:49.226Z,61.69
2019-03-28T11:15:18.071Z,62.02
2019-03-28T11:17:47.596Z,61.96
2019-03-28T11:20:16.751Z,61.25
2019-03-28T11:22:45.591Z,61.44
2019-03-28T11:25:14.493Z,61.65
2019-03-28T11:27:43.286Z,60.75
2019-03-28T11:30:13.146Z,60.17
2019-03-28T11:32:41.907Z,60.11
2019-03-28T11:35:10.689Z,59.75
2019-03-28T11:37:39.528Z,58.37
2019-03-28T11:40:09.746Z,58.48
2019-03-28T11:42:38.506Z,56.70
2019-03-28T11:45:09.381Z,54.92
2019-03-28T11:47:38.627Z,49.94
2019-03-28T11:50:09.585Z,48.00
2019-03-28T11:52:38.426Z,44.34
2019-03-28T11:55:08.088Z,42.99
2019-03-28T11:57:37.848Z,41.17
2019-03-28T12:00:09.868Z,41.37
2019-03-28T12:02:38.647Z,41.31
2019-03-28T12:05:07.768Z,39.38
2019-03-28T12:07:36.526Z,39.61
2019-03-28T12:10:10.489Z,41.91
2019-03-28T12:12:38.506Z,41.07
2019-03-28T12:15:08.371Z,41.23
2019-03-28T12:17:37.166Z,40.36
2019-03-28T12:20:07.931Z,42.54
2019-03-28T12:22:36.687Z,41.62
2019-03-28T12:25:07.887Z,40.52
2019-03-28T12:27:36.706Z,40.50
2019-03-28T12:30:10.927Z,40.32
2019-03-28T12:32:39.687Z,40.35
2019-03-28T12:35:09.286Z,40.97
2019-03-28T12:37:38.047Z,41.50
2019-03-28T12:40:10.768Z,42.09
2019-03-28T12:42:39.579Z,44.64
2019-03-28T12:45:10.607Z,45.65
2019-03-28T12:47:43.167Z,47.25
2019-03-28T12:50:14.355Z,48.39
2019-03-28T12:52:43.110Z,48.88
2019-03-28T12:55:13.931Z,49.63
2019-03-28T12:57:42.666Z,50.10
2019-03-28T13:00:13.408Z,50.63
2019-03-28T13:02:42.249Z,50.80
2019-03-28T13:05:11.654Z,51.86
2019-03-28T13:07:40.728Z,51.77
2019-03-28T13:10:11.571Z,51.59
2019-03-28T13:12:40.348Z,52.28
2019-03-28T13:15:09.516Z,51.87
2019-03-28T13:17:38.346Z,51.39
2019-03-28T13:20:09.134Z,51.02
2019-03-28T13:22:37.873Z,48.75
2019-03-28T13:25:07.924Z,47.45
2019-03-28T13:27:37.063Z,47.92
2019-03-28T13:30:13.607Z,46.52
2019-03-28T13:32:42.652Z,47.00
2019-03-28T13:35:11.706Z,46.78
2019-03-28T13:37:40.506Z,46.86
2019-03-28T13:40:09.690Z,46.40
2019-03-28T13:42:39.080Z,46.81
2019-03-28T13:45:10.208Z,45.20
2019-03-28T13:47:39.067Z,42.57
2019-03-28T13:50:09.926Z,37.05
2019-03-28T13:52:38.687Z,37.26
2019-03-28T13:55:08.350Z,36.87
2019-03-28T13:57:37.171Z,37.19
2019-03-28T14:00:08.239Z,35.91
2019-03-28T14:02:37.186Z,34.87
2019-03-28T14:05:07.448Z,34.40
2019-03-28T14:07:36.628Z,33.99
2019-03-28T14:10:06.772Z,33.65
2019-03-28T14:12:35.608Z,33.28
2019-03-28T14:15:05.168Z,32.32
2019-03-28T14:17:35.082Z,31.85
2019-03-28T14:20:05.431Z,31.94
2019-03-28T14:22:34.406Z,32.34
2019-03-28T14:25:03.231Z,34.83
2019-03-28T14:27:31.972Z,37.26
2019-03-28T14:30:00.706Z,38.16
2019-03-28T14:32:29.463Z,38.82
2019-03-28T14:34:58.226Z,39.63
2019-03-28T14:37:40.839Z,39.27
2019-03-28T14:40:14.562Z,39.47
2019-03-28T14:42:43.637Z,41.31
2019-03-28T14:45:12.407Z,40.16
2019-03-28T14:47:41.140Z,40.64
2019-03-28T14:50:10.601Z,40.75
2019-03-28T14:52:39.387Z,41.21
2019-03-28T14:55:08.308Z,40.70
2019-03-28T14:57:37.155Z,40.89
2019-03-28T15:00:15.017Z,39.96
2019-03-28T15:02:55.213Z,38.63
2019-03-28T15:05:37.046Z,39.29
2019-03-28T15:08:12.949Z,40.21
2019-03-28T15:10:51.158Z,40.81
2019-03-28T15:13:21.848Z,41.15
2019-03-28T15:15:52.193Z,42.13
2019-03-28T15:18:33.999Z,42.18
2019-03-28T15:21:16.959Z,41.80
2019-03-28T15:23:46.600Z,40.93
2019-03-28T15:26:15.390Z,40.22
2019-03-28T15:28:44.146Z,39.79
2019-03-28T15:31:12.946Z,41.28
2019-03-28T15:33:41.726Z,41.66
2019-03-28T15:36:10.526Z,43.54
2019-03-28T15:38:39.934Z,45.39
2019-03-28T15:41:09.087Z,44.51
2019-03-28T15:43:40.327Z,44.71
2019-03-28T15:46:09.086Z,43.94
2019-03-28T15:48:37.885Z,45.61
2019-03-28T15:51:06.685Z,44.74
2019-03-28T15:53:35.506Z,45.26
2019-03-28T15:56:04.306Z,46.03
2019-03-28T15:58:33.108Z,46.53
2019-03-28T16:01:01.946Z,46.80
2019-03-28T16:03:30.852Z,46.19
2019-03-28T16:05:59.606Z,47.14
2019-03-28T16:08:28.431Z,47.77
2019-03-28T16:10:57.189Z,47.14
2019-03-28T16:13:25.946Z,47.30
2019-03-28T16:15:54.846Z,47.08
2019-03-28T16:18:23.606Z,46.90
2019-03-28T16:20:53.489Z,47.27
2019-03-28T16:23:22.466Z,47.09
2019-03-28T16:25:51.227Z,46.36
2019-03-28T16:28:20.083Z,46.66
2019-03-28T16:30:48.986Z,46.78
2019-03-28T16:33:17.766Z,47.16
2019-03-28T16:35:46.527Z,47.58
2019-03-28T16:38:15.510Z,47.28
2019-03-28T16:40:44.336Z,47.20
2019-03-28T16:43:17.055Z,47.25
2019-03-28T16:45:49.193Z,47.70
2019-03-28T16:48:27.311Z,48.23
2019-03-28T16:51:10.354Z,48.29
2019-03-28T16:53:40.215Z,48.25
2019-03-28T16:56:10.451Z,48.27
2019-03-28T16:58:40.571Z,47.39
2019-03-28T17:01:12.743Z,47.83
2019-03-28T17:03:41.987Z,48.37
2019-03-28T17:06:11.266Z,48.71
2019-03-28T17:08:43.570Z,49.20
2019-03-28T17:11:12.546Z,49.24
2019-03-28T17:13:41.437Z,49.75
2019-03-28T17:16:10.207Z,49.77
2019-03-28T17:18:38.965Z,49.93
2019-03-28T17:21:08.028Z,50.07
2019-03-28T17:23:36.813Z,50.16
2019-03-28T17:26:06.247Z,50.21
2019-03-28T17:28:35.027Z,50.56
2019-03-28T17:31:03.908Z,50.71
2019-03-28T17:33:32.667Z,50.75
2019-03-28T17:36:02.066Z,51.02
2019-03-28T17:38:30.855Z,51.02
2019-03-28T17:40:59.609Z,51.06
2019-03-28T17:43:38.115Z,50.67
2019-03-28T17:46:07.007Z,50.63
2019-03-28T17:48:35.779Z,50.64
2019-03-28T17:51:04.788Z,50.76
2019-03-28T17:53:33.628Z,50.88
2019-03-28T17:56:02.386Z,50.86
2019-03-28T17:58:31.736Z,51.05
2019-03-28T18:01:00.579Z,51.13
2019-03-28T18:03:31.406Z,51.29
2019-03-28T18:05:59.868Z,51.45
2019-03-28T18:08:28.666Z,51.39
2019-03-28T18:11:00.239Z,51.50
2019-03-28T18:13:28.146Z,51.90
2019-03-28T18:15:57.145Z,52.56
2019-03-28T18:18:25.927Z,54.08
2019-03-28T18:20:55.142Z,54.63
2019-03-28T18:23:23.972Z,57.87
2019-03-28T18:25:52.947Z,60.49
2019-03-28T18:28:21.928Z,61.13
2019-03-28T18:30:50.686Z,62.52
2019-03-28T18:33:19.607Z,63.00
2019-03-28T18:35:48.429Z,62.33
2019-03-28T18:38:17.246Z,62.12
2019-03-28T18:40:46.866Z,61.98
2019-03-28T18:43:15.848Z,61.29
2019-03-28T18:45:44.648Z,61.36
2019-03-28T18:48:27.394Z,62.62
2019-03-28T18:50:45.606Z,63.48
2019-03-28T18:53:16.070Z,64.11
2019-03-28T18:55:44.998Z,64.39
2019-03-28T18:58:13.926Z,64.33
2019-03-28T19:00:42.848Z,63.95
2019-03-28T19:03:11.689Z,63.87
2019-03-28T19:05:40.666Z,63.92
2019-03-28T19:08:09.506Z,64.40
2019-03-28T19:10:39.827Z,64.75
2019-03-28T19:13:08.888Z,65.25
2019-03-28T19:15:37.827Z,65.22
2019-03-28T19:18:06.786Z,64.85
2019-03-28T19:20:35.993Z,65.54
2019-03-28T19:23:07.249Z,66.02
2019-03-28T19:25:35.835Z,66.09
2019-03-28T19:28:07.510Z,66.14
2019-03-28T19:30:35.752Z,66.03
2019-03-28T19:33:06.864Z,65.26
2019-03-28T19:35:36.946Z,65.02
2019-03-28T19:38:08.930Z,64.99
2019-03-28T19:40:36.747Z,64.78
2019-03-28T19:43:19.307Z,66.27
2019-03-28T19:45:37.566Z,67.85
2019-03-28T19:48:06.987Z,68.49
2019-03-28T19:50:36.127Z,68.52
2019-03-28T19:53:05.466Z,67.13
2019-03-28T19:55:34.286Z,66.90
2019-03-28T19:58:03.356Z,66.57
2019-03-28T20:00:32.169Z,66.85
2019-03-28T20:03:02.387Z,67.27
2019-03-28T20:05:31.606Z,67.11
2019-03-28T20:08:14.388Z,67.23
2019-03-28T20:10:30.987Z,67.60
2019-03-28T20:12:59.846Z,67.69
2019-03-28T20:15:28.875Z,67.94
2019-03-28T20:17:57.604Z,68.12
2019-03-28T20:20:26.486Z,68.38
2019-03-28T20:22:56.160Z,68.69
2019-03-28T20:25:25.649Z,68.83
2019-03-28T20:27:54.446Z,69.07
2019-03-28T20:30:23.584Z,69.83
2019-03-28T20:32:52.545Z,69.65
2019-03-28T20:35:22.018Z,70.17
2019-03-28T20:37:51.087Z,70.35
2019-03-28T20:40:20.166Z,69.69
2019-03-28T20:42:48.943Z,70.07
2019-03-28T20:45:19.529Z,70.05
2019-03-28T20:47:48.305Z,69.97
2019-03-28T20:50:17.889Z,69.58
2019-03-28T20:52:46.659Z,69.91
2019-03-28T20:55:16.414Z,69.97
2019-03-28T20:57:45.159Z,69.66
2019-03-28T21:00:14.747Z,69.43
2019-03-28T21:02:45.086Z,69.22
2019-03-28T21:05:14.686Z,69.56
2019-03-28T21:07:43.619Z,69.24
2019-03-28T21:10:15.668Z,69.31
2019-03-28T21:12:44.586Z,69.71
2019-03-28T21:15:13.366Z,69.83
2019-03-28T21:17:42.206Z,70.11
2019-03-28T21:20:11.207Z,69.71
2019-03-28T21:22:39.993Z,70.19
2019-03-28T21:25:08.886Z,69.86
2019-03-28T21:27:37.645Z,69.35
2019-03-28T21:30:07.806Z,69.38
2019-03-28T21:32:36.805Z,69.29
2019-03-28T21:35:08.770Z,69.35
2019-03-28T21:37:37.566Z,69.36
2019-03-28T21:40:07.132Z,69.02
2019-03-28T21:42:37.147Z,69.02
2019-03-28T21:45:06.867Z,69.25
2019-03-28T21:47:35.632Z,68.66
2019-03-28T21:50:08.645Z,68.86
2019-03-28T21:52:37.447Z,69.70
2019-03-28T21:55:07.866Z,69.62
2019-03-28T21:57:38.141Z,70.06
2019-03-28T22:00:11.011Z,70.56
2019-03-28T22:02:39.746Z,70.65
2019-03-28T22:05:09.249Z,70.16
2019-03-28T22:07:38.046Z,70.15
2019-03-28T22:10:09.096Z,70.25
2019-03-28T22:12:38.026Z,70.29
2019-03-28T22:15:08.228Z,70.62
2019-03-28T22:17:37.387Z,70.37
2019-03-28T22:20:07.811Z,70.50
2019-03-28T22:22:36.606Z,70.45
2019-03-28T22:25:07.173Z,70.72
2019-03-28T22:27:35.910Z,70.67
2019-03-28T22:30:05.411Z,70.45
2019-03-28T22:32:34.189Z,70.61
2019-03-28T22:35:02.929Z,70.45
2019-03-28T22:37:31.747Z,70.50
2019-03-28T22:40:00.551Z,70.34
2019-03-28T22:42:29.324Z,70.30
2019-03-28T22:44:58.154Z,70.35
2019-03-28T22:47:26.916Z,69.81
2019-03-28T22:49:55.651Z,70.39
2019-03-28T22:52:24.529Z,70.84
2019-03-28T22:54:53.309Z,71.18
2019-03-28T22:57:22.046Z,71.55
2019-03-28T22:59:50.862Z,71.34
2019-03-28T23:02:19.587Z,70.85
2019-03-28T23:04:48.348Z,69.72
2019-03-28T23:07:17.148Z,69.64
2019-03-28T23:09:45.910Z,69.99
2019-03-28T23:12:14.680Z,70.19
2019-03-28T23:14:44.190Z,69.80
2019-03-28T23:17:13.575Z,69.50
2019-03-28T23:19:42.354Z,70.23
2019-03-28T23:22:11.196Z,70.77
2019-03-28T23:24:40.549Z,70.98
2019-03-28T23:27:09.325Z,70.04
2019-03-28T23:29:38.130Z,69.71
2019-03-28T23:32:06.871Z,69.46
2019-03-28T23:34:35.629Z,69.66
2019-03-28T23:37:04.429Z,69.82
2019-03-28T23:39:33.195Z,69.67
2019-03-28T23:42:01.970Z,69.76
2019-03-28T23:44:30.777Z,70.22
2019-03-28T23:46:59.530Z,70.62
2019-03-28T23:49:28.281Z,70.19
2019-03-28T23:51:57.090Z,70.36
2019-03-28T23:54:26.903Z,71.11
2019-03-28T23:56:55.788Z,70.87
2019-03-28T23:59:24.598Z,71.86
